Photometre #347[NE_1.6] Troodos_CAO AOT

File : 20220925_347.hum

25/09/2022,04:22:28,TEMP=9.0,BA=5.64,STAT.A=0.5,ExtBa=14.02
25/09/2022,04:25:36,TEMP=9.2,BA=5.64,STAT.A=0.5,ExtBa=13.97
25/09/2022,04:29:16,TEMP=9.2,BA=5.64,STAT.A=0.5,ExtBa=13.87
25/09/2022,04:33:36,TEMP=9.4,BA=5.60,STAT.A=0.5,ExtBa=13.86
25/09/2022,04:38:50,TEMP=9.8,BA=5.60,STAT.A=0.5,ExtBa=13.85
25/09/2022,04:45:17,TEMP=10.3,BA=5.60,STAT.A=0.5,ExtBa=13.88
25/09/2022,04:53:24,TEMP=11.1,BA=5.64,STAT.B=0.5,ExtBa=13.93
25/09/2022,05:02:03,TEMP=12.2,BA=5.48,STAT.A=0.5,ExtBa=12.78
25/09/2022,05:03:55,TEMP=12.6,BA=5.48,STAT.A=0.5,ExtBa=12.78
25/09/2022,05:06:31,TEMP=12.9,BA=5.48,STAT.A=0.5,ExtBa=12.82
25/09/2022,05:12:03,TEMP=13.1,BA=5.64,STAT.A=0.5,ExtBa=13.00
25/09/2022,05:18:25,TEMP=13.5,BA=5.64,STAT.C=0.5,ExtBa=13.15
25/09/2022,05:31:58,TEMP=14.7,BA=5.40,STAT.A=0.5,ExtBa=12.69
25/09/2022,05:34:25,TEMP=15.0,BA=5.40,STAT.A=0.5,ExtBa=12.79
25/09/2022,05:44:44,TEMP=14.7,BA=5.64,STAT.A=0.5,ExtBa=13.20
25/09/2022,05:57:17,TEMP=15.6,BA=5.64,STAT.A=0.5,ExtBa=13.46
25/09/2022,06:13:01,TEMP=16.0,BA=5.64,STAT.B=0.5,ExtBa=13.62
25/09/2022,06:25:54,TEMP=16.5,BA=5.40,STAT.D=0.5,ExtBa=13.10
25/09/2022,06:40:56,TEMP=17.8,BA=5.64,STAT.F,ExtBa=13.46
25/09/2022,06:55:54,TEMP=19.7,BA=5.40,STAT.D=0.5,ExtBa=12.84
25/09/2022,07:10:54,TEMP=20.0,BA=5.64,STAT.D=0.5,ExtBa=13.36
25/09/2022,07:25:54,TEMP=21.0,BA=5.64,STAT.D=0.5,ExtBa=13.51
25/09/2022,07:40:56,TEMP=22.2,BA=5.64,STAT.F,ExtBa=13.58
25/09/2022,07:58:24,TEMP=22.1,BA=5.40,STAT.D=0.5,ExtBa=13.01
25/09/2022,08:10:55,TEMP=22.5,BA=5.64,STAT.D=0.5,ExtBa=13.40
25/09/2022,08:25:55,TEMP=23.0,BA=5.64,STAT.D=0.5,ExtBa=13.57
25/09/2022,08:40:56,TEMP=23.7,BA=5.64,STAT.F,ExtBa=13.60
25/09/2022,08:55:55,TEMP=23.8,BA=5.64,STAT.D=0.5,ExtBa=13.44
25/09/2022,09:10:55,TEMP=24.2,BA=5.64,STAT.D=0.5,ExtBa=13.64
25/09/2022,09:25:55,TEMP=24.0,BA=5.64,STAT.D=0.5,ExtBa=13.76
25/09/2022,09:40:57,TEMP=24.4,BA=5.64,STAT.F,ExtBa=13.81
25/09/2022,09:55:55,TEMP=23.9,BA=5.64,STAT.D=0.5,ExtBa=13.53
25/09/2022,10:10:55,TEMP=24.2,BA=5.64,STAT.D=0.5,ExtBa=13.80
25/09/2022,10:25:55,TEMP=24.9,BA=5.64,STAT.D=0.5,ExtBa=13.87
25/09/2022,10:40:56,TEMP=24.9,BA=5.64,STAT.F,ExtBa=13.86
25/09/2022,10:55:55,TEMP=25.0,BA=5.60,STAT.D=0.5,ExtBa=13.60
25/09/2022,11:10:55,TEMP=25.1,BA=5.60,STAT.D=0.5,ExtBa=13.82
25/09/2022,11:25:55,TEMP=24.0,BA=5.60,STAT.D=0.5,ExtBa=13.86
25/09/2022,11:40:56,TEMP=24.4,BA=5.60,STAT.F,ExtBa=13.84
25/09/2022,11:55:54,TEMP=24.0,BA=5.40,STAT.D=0.5,ExtBa=13.01
25/09/2022,12:10:54,TEMP=23.7,BA=5.60,STAT.D=0.5,ExtBa=13.45
25/09/2022,12:25:54,TEMP=23.8,BA=5.60,STAT.D=0.5,ExtBa=13.65
25/09/2022,12:40:56,TEMP=23.7,BA=5.60,STAT.F,ExtBa=13.77
25/09/2022,12:55:54,TEMP=23.5,BA=5.40,STAT.D=0.5,ExtBa=12.98
25/09/2022,13:08:49,TEMP=23.3,BA=5.56,STAT.B=0.5,ExtBa=13.40
25/09/2022,13:24:33,TEMP=22.9,BA=5.56,STAT.A=0.5,ExtBa=13.23
25/09/2022,13:37:06,TEMP=22.7,BA=5.56,STAT.A=0.5,ExtBa=13.45
25/09/2022,13:47:25,TEMP=22.6,BA=5.56,STAT.A=0.5,ExtBa=13.54
25/09/2022,13:56:04,TEMP=22.2,BA=5.56,STAT.A=0.5,ExtBa=13.59
25/09/2022,14:03:25,TEMP=21.9,BA=5.60,STAT.C=0.5,ExtBa=13.65
25/09/2022,14:09:47,TEMP=22.0,BA=5.60,STAT.A=0.5,ExtBa=13.67
25/09/2022,14:15:19,TEMP=21.5,BA=5.44,STAT.A=0.5,ExtBa=13.68
25/09/2022,14:20:13,TEMP=20.3,BA=5.48,STAT.A=0.5,ExtBa=13.69
25/09/2022,14:24:33,TEMP=19.6,BA=5.48,STAT.A=0.5,ExtBa=13.68
25/09/2022,14:28:26,TEMP=19.2,BA=5.48,STAT.B=0.5,ExtBa=13.68
25/09/2022,14:36:33,TEMP=17.8,BA=5.48,STAT.A=0.5,ExtBa=13.73
25/09/2022,14:43:00,TEMP=17.6,BA=5.60,STAT.A=0.5,ExtBa=13.75
25/09/2022,14:49:47,TEMP=17.5,BA=5.60,STAT.A=0.5,ExtBa=13.76
25/09/2022,14:52:33,TEMP=17.8,BA=5.40,STAT.A=0.5,ExtBa=13.70
25/09/2022,14:56:13,TEMP=17.7,BA=5.40,STAT.A=0.5,ExtBa=13.69
25/09/2022,14:59:22,TEMP=17.8,BA=5.40,STAT.A=0.5,ExtBa=13.66